Time;durP1;ratioP1;P1;durP2;ratioP2;P2;SDS_P1;SDS_P2;PMS_P1;PMS_P2;Temp;Humidity;BMP_temperature;BMP_pressure;BME280_temperature;BME280_humidity;BME280_pressure;Samples;Min_cycle;Max_cycle;Signal;HPM_P1;HPM_P2
2022/05/10 00:01:07;;;;;;;;;;;;;;;3.32;85.41;100322.25;5051108;28;859;-54
2022/05/10 00:03:36;;;;;;;;;;;;;;;3.27;85.29;100308.81;5051092;28;915;-54
2022/05/10 00:06:05;;;;;;;;;;;;;;;3.16;85.03;100313.13;5051561;28;794;-54
2022/05/10 00:08:32;;;;;;;;;;;;;;;3.10;85.79;100306.31;5051231;28;954;-54
2022/05/10 00:10:59;;;;;;;;;;;;;;;3.02;86.38;100311.50;5051048;28;799;-54
2022/05/10 00:13:26;;;;;;;;;;;;;;;2.96;86.59;100312.06;5051222;28;878;-54
2022/05/10 00:15:53;;;;;;;;;;;;;;;2.90;86.12;100307.97;5051091;28;883;-55
2022/05/10 00:18:21;;;;;;;;;;;;;;;2.84;86.54;100304.69;5051092;28;1894;-55
2022/05/10 00:20:48;;;;;;;;;;;;;;;2.79;86.68;100300.19;5051332;28;877;-55
2022/05/10 00:23:15;;;;;;;;;;;;;;;2.78;87.24;100300.56;5051004;28;902;-55
2022/05/10 00:25:42;;;;;;;;;;;;;;;2.98;88.30;100301.63;5054538;28;921;-55
2022/05/10 00:28:09;;;;;;;;;;;;;;;3.13;88.36;100295.47;5055122;28;857;-54
2022/05/10 00:30:36;;;;;;;;;;;;;;;3.27;88.34;100287.75;5054878;28;818;-52
2022/05/10 00:33:02;;;;;;;;;;;;;;;3.53;88.31;100285.81;5054858;28;799;-55
2022/05/10 00:35:30;;;;;;;;;;;;;;;3.70;86.84;100285.56;5054794;28;848;-55
2022/05/10 00:37:59;;;;;;;;;;;;;;;3.86;85.91;100281.00;5054516;28;927;-54
2022/05/10 00:40:29;;;;;;;;;;;;;;;4.19;83.89;100279.19;5054354;28;1914;-55
2022/05/10 00:42:57;;;;;;;;;;;;;;;4.33;83.40;100284.25;5054655;28;842;-53
2022/05/10 00:45:30;;;;;;;;;;;;;;;4.20;83.34;100283.50;5054648;28;803;-55
2022/05/10 00:48:06;;;;;;;;;;;;;;;4.05;83.16;100282.28;5054533;28;795;-55
2022/05/10 00:50:37;;;;;;;;;;;;;;;3.92;83.67;100283.47;5054476;28;787;-54
2022/05/10 00:53:07;;;;;;;;;;;;;;;3.74;84.16;100278.28;5054485;28;787;-55
2022/05/10 00:55:42;;;;;;;;;;;;;;;3.67;83.93;100272.59;5054505;28;862;-55
2022/05/10 00:58:44;;;;;;;;;;;;;;;3.68;84.15;100266.78;5054399;28;862;-55
2022/05/10 01:01:14;;;;;;;;;;;;;;;3.64;84.62;100267.81;5012395;28;1285;-55
2022/05/10 01:03:45;;;;;;;;;;;;;;;3.61;83.78;100263.03;5012510;28;1070;-55
2022/05/10 01:06:21;;;;;;;;;;;;;;;3.58;83.09;100261.78;5012848;28;862;-55
2022/05/10 01:08:57;;;;;;;;;;;;;;;3.45;83.46;100252.78;5012302;28;950;-54
2022/05/10 01:11:27;;;;;;;;;;;;;;;3.25;83.56;100259.97;5012347;28;862;-54
2022/05/10 01:13:53;;;;;;;;;;;;;;;3.14;83.93;100260.78;5012294;28;800;-55
2022/05/10 01:16:21;;;;;;;;;;;;;;;3.13;84.34;100262.72;5012220;28;1089;-56
2022/05/10 01:18:48;;;;;;;;;;;;;;;3.11;84.36;100261.47;5012340;28;1945;-54
2022/05/10 01:21:23;;;;;;;;;;;;;;;3.08;84.59;100256.69;5012073;28;1228;-54
2022/05/10 01:24:16;;;;;;;;;;;;;;;3.11;85.07;100261.47;5012130;28;900;-54
2022/05/10 01:26:49;;;;;;;;;;;;;;;3.09;85.05;100256.31;5010214;28;1687;-54
2022/05/10 01:29:29;;;;;;;;;;;;;;;3.03;84.79;100263.16;5012026;28;1038;-55
2022/05/10 01:34:45;;;;;;;;;;;;;;;3.04;85.23;100257.34;5026229;28;1024;-55
2022/05/10 01:37:16;;;;;;;;;;;;;;;3.04;85.30;100259.28;5035010;28;1619;-54
2022/05/10 01:39:52;;;;;;;;;;;;;;;2.98;85.51;100257.91;5053650;28;1890;-54
2022/05/10 01:42:30;;;;;;;;;;;;;;;3.03;85.81;100255.78;5053567;28;850;-54
2022/05/10 01:44:59;;;;;;;;;;;;;;;3.23;85.99;100248.59;5053530;28;1333;-54
2022/05/10 01:47:26;;;;;;;;;;;;;;;3.34;85.78;100251.66;5053652;28;818;-54
2022/05/10 01:49:56;;;;;;;;;;;;;;;3.29;85.77;100254.63;5053634;28;861;-54
2022/05/10 01:52:28;;;;;;;;;;;;;;;3.31;85.04;100249.63;5053306;28;931;-52
2022/05/10 01:54:58;;;;;;;;;;;;;;;3.35;85.04;100244.25;5053319;28;826;-54
2022/05/10 01:57:26;;;;;;;;;;;;;;;3.40;85.20;100246.78;5053154;28;930;-54
2022/05/10 01:59:55;;;;;;;;;;;;;;;3.43;85.27;100248.81;5053019;28;1969;-54
2022/05/10 02:02:24;;;;;;;;;;;;;;;3.46;84.95;100243.47;5053131;28;838;-54
2022/05/10 02:04:54;;;;;;;;;;;;;;;3.41;84.13;100245.63;5052987;28;1068;-54
2022/05/10 02:07:23;;;;;;;;;;;;;;;3.30;84.26;100241.78;5052954;28;839;-54
2022/05/10 02:09:52;;;;;;;;;;;;;;;3.32;85.05;100240.28;5053235;28;877;-53
2022/05/10 02:12:39;;;;;;;;;;;;;;;3.42;84.61;100230.84;5052980;28;826;-53
2022/05/10 02:15:11;;;;;;;;;;;;;;;3.47;84.21;100230.59;5052876;28;1268;-53
2022/05/10 02:17:38;;;;;;;;;;;;;;;3.46;84.50;100238.00;5052866;28;822;-55
2022/05/10 02:20:15;;;;;;;;;;;;;;;3.51;83.93;100233.44;5052820;28;1951;-54
2022/05/10 02:22:53;;;;;;;;;;;;;;;3.53;84.52;100231.16;5052766;28;850;-55
2022/05/10 02:25:28;;;;;;;;;;;;;;;3.54;84.36;100236.28;5053008;28;911;-54
2022/05/10 02:28:03;;;;;;;;;;;;;;;3.50;84.16;100240.84;5052590;28;933;-54
2022/05/10 02:30:31;;;;;;;;;;;;;;;3.46;84.43;100239.94;5052632;28;814;-54
2022/05/10 02:33:06;;;;;;;;;;;;;;;3.43;83.86;100233.19;5052647;28;823;-54
2022/05/10 02:35:35;;;;;;;;;;;;;;;3.21;84.65;100245.41;5052517;28;826;-54
2022/05/10 02:38:03;;;;;;;;;;;;;;;3.03;85.11;100241.31;5052343;28;950;-54
2022/05/10 02:40:29;;;;;;;;;;;;;;;3.01;86.01;100235.41;5051892;28;1941;-52
2022/05/10 02:42:56;;;;;;;;;;;;;;;3.16;87.07;100245.66;5052417;28;811;-52
2022/05/10 02:45:23;;;;;;;;;;;;;;;3.27;86.28;100232.31;5052283;28;787;-52
2022/05/10 02:47:49;;;;;;;;;;;;;;;3.33;86.28;100243.81;5051354;28;815;-53
2022/05/10 02:50:15;;;;;;;;;;;;;;;3.36;86.71;100237.66;5052216;28;811;-52
2022/05/10 02:52:42;;;;;;;;;;;;;;;3.45;86.48;100249.25;5052210;28;877;-54
2022/05/10 02:55:17;;;;;;;;;;;;;;;3.51;85.83;100238.91;5052100;28;851;-54
2022/05/10 02:57:46;;;;;;;;;;;;;;;3.57;85.54;100243.00;5052089;28;830;-52
2022/05/10 03:00:13;;;;;;;;;;;;;;;3.64;85.98;100243.19;5052357;28;1902;-52
2022/05/10 03:02:43;;;;;;;;;;;;;;;3.62;85.56;100249.00;5052288;28;838;-55
2022/05/10 03:05:12;;;;;;;;;;;;;;;3.45;84.96;100241.06;5051927;28;865;-54
2022/05/10 03:07:39;;;;;;;;;;;;;;;3.28;85.74;100244.84;5052023;28;846;-54
2022/05/10 03:10:07;;;;;;;;;;;;;;;3.13;86.19;100248.25;5051860;28;846;-54
2022/05/10 03:12:33;;;;;;;;;;;;;;;2.98;86.69;100249.72;5052228;28;835;-55
2022/05/10 03:15:00;;;;;;;;;;;;;;;2.95;86.67;100245.75;5051904;28;802;-54
2022/05/10 03:17:27;;;;;;;;;;;;;;;3.09;86.88;100250.88;5051900;28;811;-52
2022/05/10 03:19:53;;;;;;;;;;;;;;;3.29;87.11;100246.44;5051673;28;1937;-55
2022/05/10 03:22:20;;;;;;;;;;;;;;;3.31;86.65;100240.63;5051968;28;838;-55
2022/05/10 03:24:47;;;;;;;;;;;;;;;3.24;86.71;100239.28;5051978;28;876;-54
2022/05/10 03:27:16;;;;;;;;;;;;;;;3.16;86.53;100245.66;5052065;28;823;-54
2022/05/10 03:29:41;;;;;;;;;;;;;;;3.06;87.20;100248.84;5051545;28;854;-53
2022/05/10 03:32:09;;;;;;;;;;;;;;;2.97;87.77;100248.94;5051781;28;833;-54
2022/05/10 03:37:21;;;;;;;;;;;;;;;2.99;87.69;100252.13;5051426;28;1217;-55
2022/05/10 03:39:47;;;;;;;;;;;;;;;3.15;88.21;100265.91;5051565;28;1886;-54
2022/05/10 03:42:13;;;;;;;;;;;;;;;3.45;88.71;100257.47;5051756;28;814;-52
2022/05/10 03:44:40;;;;;;;;;;;;;;;3.78;88.03;100259.25;5033782;28;1419;-54
2022/05/10 03:47:08;;;;;;;;;;;;;;;4.12;88.59;100266.09;5033746;28;653;-54
2022/05/10 03:49:35;;;;;;;;;;;;;;;4.44;88.97;100260.72;5051938;28;823;-54
2022/05/10 03:52:02;;;;;;;;;;;;;;;4.69;88.60;100267.66;5051456;28;839;-53
2022/05/10 03:54:28;;;;;;;;;;;;;;;4.86;88.73;100257.50;5051576;28;950;-53
2022/05/10 03:56:55;;;;;;;;;;;;;;;5.04;88.66;100266.97;5051516;28;972;-55
2022/05/10 03:59:22;;;;;;;;;;;;;;;5.22;88.76;100264.66;5053201;28;1973;-54
2022/05/10 04:01:49;;;;;;;;;;;;;;;5.43;88.36;100269.06;5055559;28;870;-52
2022/05/10 04:04:15;;;;;;;;;;;;;;;5.61;88.08;100266.72;5056101;28;818;-53
2022/05/10 04:06:42;;;;;;;;;;;;;;;5.83;87.48;100268.00;5055760;28;835;-54
2022/05/10 04:09:09;;;;;;;;;;;;;;;6.11;87.37;100268.63;5055104;28;902;-53
2022/05/10 04:11:35;;;;;;;;;;;;;;;6.37;86.21;100266.38;5055589;28;846;-54
2022/05/10 04:14:03;;;;;;;;;;;;;;;6.51;85.32;100269.41;5055387;28;815;-54
2022/05/10 04:16:30;;;;;;;;;;;;;;;6.59;84.98;100276.59;5037681;28;1088;-54
2022/05/10 04:18:56;;;;;;;;;;;;;;;6.65;84.77;100271.63;5055048;28;1914;-54
2022/05/10 04:21:23;;;;;;;;;;;;;;;6.75;84.28;100277.31;5055162;28;814;-54
2022/05/10 04:23:51;;;;;;;;;;;;;;;6.88;83.54;100280.69;5054944;28;909;-55
2022/05/10 04:26:19;;;;;;;;;;;;;;;7.04;83.09;100280.56;5055205;28;894;-55
2022/05/10 04:28:46;;;;;;;;;;;;;;;7.21;81.68;100279.28;5055082;28;826;-53
2022/05/10 04:31:12;;;;;;;;;;;;;;;7.38;80.84;100277.94;5055517;28;863;-52
2022/05/10 04:33:39;;;;;;;;;;;;;;;7.55;79.52;100291.22;5054977;28;862;-52
2022/05/10 04:36:07;;;;;;;;;;;;;;;7.70;78.92;100291.41;5055226;28;763;-54
2022/05/10 04:38:33;;;;;;;;;;;;;;;7.86;78.40;100289.28;5055315;28;1910;-55
2022/05/10 04:43:45;;;;;;;;;;;;;;;8.27;77.21;100294.91;5054920;28;625;-54
2022/05/10 04:46:12;;;;;;;;;;;;;;;8.54;75.95;100290.16;5036640;28;1302;-52
2022/05/10 04:48:39;;;;;;;;;;;;;;;8.77;74.92;100294.75;5054916;28;897;-54
2022/05/10 04:51:06;;;;;;;;;;;;;;;8.91;73.63;100299.59;5054462;28;913;-55
2022/05/10 04:53:33;;;;;;;;;;;;;;;9.02;73.90;100294.97;5054425;28;795;-54
2022/05/10 04:56:00;;;;;;;;;;;;;;;9.10;73.14;100290.31;5054413;28;874;-52
2022/05/10 04:58:26;;;;;;;;;;;;;;;9.22;72.67;100295.53;5054208;28;1918;-54
2022/05/10 05:01:01;;;;;;;;;;;;;;;9.36;72.18;100297.63;5054366;28;846;-54
2022/05/10 05:03:26;;;;;;;;;;;;;;;9.54;71.53;100301.31;5054392;28;795;-53
2022/05/10 05:05:53;;;;;;;;;;;;;;;9.77;71.12;100298.31;5054351;28;857;-53
2022/05/10 05:08:20;;;;;;;;;;;;;;;9.99;70.09;100312.25;5054398;28;841;-51
2022/05/10 05:10:47;;;;;;;;;;;;;;;10.30;69.19;100305.31;5053101;28;830;-53
2022/05/10 05:13:14;;;;;;;;;;;;;;;10.89;67.50;100307.88;5054206;28;843;-54
2022/05/10 05:15:41;;;;;;;;;;;;;;;11.54;65.30;100305.13;5054361;28;818;-54
2022/05/10 05:18:09;;;;;;;;;;;;;;;12.27;64.29;100304.59;5036509;28;818;-54
2022/05/10 05:20:35;;;;;;;;;;;;;;;13.24;60.67;100304.03;5053919;28;1877;-53
2022/05/10 05:23:08;;;;;;;;;;;;;;;14.02;59.27;100299.00;5053957;28;885;-54
2022/05/10 05:25:36;;;;;;;;;;;;;;;14.84;56.32;100305.53;5054149;28;1081;-54
2022/05/10 05:28:03;;;;;;;;;;;;;;;15.42;52.60;100295.06;5053792;28;946;-55
2022/05/10 05:30:30;;;;;;;;;;;;;;;16.17;50.72;100298.50;5053810;28;869;-53
2022/05/10 05:32:56;;;;;;;;;;;;;;;17.10;48.43;100298.50;5053724;28;885;-55
2022/05/10 05:35:23;;;;;;;;;;;;;;;18.17;46.92;100286.56;5053671;28;873;-54
2022/05/10 05:37:51;;;;;;;;;;;;;;;19.00;44.52;100290.50;5053612;28;833;-53
2022/05/10 05:40:18;;;;;;;;;;;;;;;19.86;43.16;100289.69;5052963;28;1886;-54
2022/05/10 05:42:45;;;;;;;;;;;;;;;20.72;41.04;100284.50;5053520;28;898;-54
2022/05/10 05:45:12;;;;;;;;;;;;;;;21.18;40.88;100286.69;5053361;28;875;-53
2022/05/10 05:47:38;;;;;;;;;;;;;;;21.43;39.80;100291.31;5053504;28;838;-54
2022/05/10 05:50:05;;;;;;;;;;;;;;;21.59;39.16;100288.22;5053553;28;795;-54
2022/05/10 05:52:32;;;;;;;;;;;;;;;21.92;38.27;100284.00;5053361;28;826;-54
2022/05/10 05:54:58;;;;;;;;;;;;;;;22.15;38.12;100288.22;5053404;28;881;-53
2022/05/10 05:57:25;;;;;;;;;;;;;;;22.48;36.95;100291.13;5053374;28;811;-56
2022/05/10 05:59:53;;;;;;;;;;;;;;;22.79;36.61;100299.34;5053070;28;1972;-56
2022/05/10 06:02:21;;;;;;;;;;;;;;;22.97;36.74;100301.28;5053135;28;937;-55
2022/05/10 06:04:48;;;;;;;;;;;;;;;23.52;36.57;100296.63;5052970;28;886;-55
2022/05/10 06:07:15;;;;;;;;;;;;;;;23.55;35.67;100299.25;5053117;28;877;-55
2022/05/10 06:09:42;;;;;;;;;;;;;;;23.24;36.09;100300.41;5052904;28;933;-53
2022/05/10 06:12:10;;;;;;;;;;;;;;;23.10;36.45;100301.09;5052866;28;819;-54
2022/05/10 06:14:38;;;;;;;;;;;;;;;23.30;36.78;100305.38;5052991;28;795;-53
2022/05/10 06:17:05;;;;;;;;;;;;;;;23.58;35.62;100303.19;5052809;28;1041;-54
2022/05/10 06:19:33;;;;;;;;;;;;;;;23.38;35.16;100298.91;5052821;28;1949;-55
2022/05/10 06:21:59;;;;;;;;;;;;;;;23.74;35.07;100301.97;5052576;28;810;-56
2022/05/10 06:24:26;;;;;;;;;;;;;;;23.73;33.99;100289.13;5052903;28;1003;-54
2022/05/10 06:26:52;;;;;;;;;;;;;;;23.97;33.82;100297.56;5052687;28;890;-56
2022/05/10 06:29:18;;;;;;;;;;;;;;;24.14;33.90;100297.91;5052581;28;930;-56
2022/05/10 06:31:47;;;;;;;;;;;;;;;24.63;33.14;100294.41;5052636;28;819;-56
2022/05/10 06:34:15;;;;;;;;;;;;;;;24.99;32.78;100295.25;5052749;28;974;-55
2022/05/10 06:36:41;;;;;;;;;;;;;;;25.13;32.57;100287.22;5052472;28;839;-56
2022/05/10 06:39:09;;;;;;;;;;;;;;;25.32;32.75;100290.59;5052428;28;1886;-54
2022/05/10 06:41:35;;;;;;;;;;;;;;;25.23;32.70;100302.81;5052199;28;1399;-56
2022/05/10 06:44:03;;;;;;;;;;;;;;;25.37;32.26;100289.88;5052433;28;851;-54
2022/05/10 06:46:32;;;;;;;;;;;;;;;25.69;32.37;100285.16;5052317;28;799;-56
2022/05/10 06:48:59;;;;;;;;;;;;;;;25.65;31.93;100296.69;5052305;28;830;-56
2022/05/10 06:51:25;;;;;;;;;;;;;;;25.94;31.26;100297.03;5052235;28;838;-55
2022/05/10 06:53:53;;;;;;;;;;;;;;;26.35;30.76;100299.78;5052218;28;787;-55
2022/05/10 06:56:21;;;;;;;;;;;;;;;26.28;30.06;100293.28;5052163;28;905;-54
2022/05/10 06:58:48;;;;;;;;;;;;;;;26.12;30.82;100298.78;5052105;28;1977;-55
2022/05/10 07:01:15;;;;;;;;;;;;;;;25.83;31.33;100295.59;5052115;28;771;-54
2022/05/10 07:03:43;;;;;;;;;;;;;;;26.13;30.25;100292.63;5052077;28;945;-55
2022/05/10 07:06:11;;;;;;;;;;;;;;;26.21;31.32;100295.78;5051834;28;1196;-55
2022/05/10 07:08:36;;;;;;;;;;;;;;;26.30;31.08;100297.69;5051856;28;862;-54
2022/05/10 07:11:04;;;;;;;;;;;;;;;26.25;30.22;100299.19;5052158;28;791;-56
2022/05/10 07:13:31;;;;;;;;;;;;;;;26.43;30.66;100300.88;5051965;28;806;-55
2022/05/10 07:15:58;;;;;;;;;;;;;;;26.58;30.03;100297.97;5051848;28;869;-55
2022/05/10 07:18:26;;;;;;;;;;;;;;;26.81;28.57;100290.41;5051810;28;1890;-55
2022/05/10 07:20:53;;;;;;;;;;;;;;;26.75;28.89;100296.03;5051880;28;842;-55
2022/05/10 07:23:21;;;;;;;;;;;;;;;26.95;28.44;100292.31;5033851;28;1194;-55
2022/05/10 07:25:47;;;;;;;;;;;;;;;26.84;29.23;100295.88;5052032;28;1184;-56
2022/05/10 07:28:14;;;;;;;;;;;;;;;26.48;28.76;100294.50;5051920;28;798;-56
2022/05/10 07:30:41;;;;;;;;;;;;;;;26.32;29.36;100297.97;5051572;28;881;-55
2022/05/10 07:33:08;;;;;;;;;;;;;;;26.61;29.12;100299.81;5051407;28;967;-56
2022/05/10 07:38:20;;;;;;;;;;;;;;;26.88;27.04;100292.78;5036718;28;597;-55
2022/05/10 07:40:48;;;;;;;;;;;;;;;26.73;27.42;100292.91;5051047;28;1885;-56
2022/05/10 07:43:16;;;;;;;;;;;;;;;26.37;27.41;100300.84;5051446;28;846;-56
2022/05/10 07:45:44;;;;;;;;;;;;;;;26.32;27.35;100301.56;5051381;28;926;-55
2022/05/10 07:48:11;;;;;;;;;;;;;;;26.67;26.53;100295.72;5051364;28;799;-55
2022/05/10 07:50:37;;;;;;;;;;;;;;;26.86;27.50;100298.97;5051433;28;791;-53
2022/05/10 07:53:08;;;;;;;;;;;;;;;26.65;25.94;100294.66;5051303;28;878;-55
2022/05/10 07:55:35;;;;;;;;;;;;;;;26.42;25.42;100296.50;5051304;28;850;-56
2022/05/10 07:58:05;;;;;;;;;;;;;;;26.64;26.84;100298.78;5051377;28;803;-55
2022/05/10 08:00:33;;;;;;;;;;;;;;;26.80;26.32;100294.50;5033356;28;2015;-55
2022/05/10 08:03:06;;;;;;;;;;;;;;;26.58;25.76;100295.13;5051140;28;889;-56
2022/05/10 08:05:33;;;;;;;;;;;;;;;26.41;25.80;100300.59;5033499;28;882;-56
2022/05/10 08:08:00;;;;;;;;;;;;;;;26.45;26.71;100290.59;5051143;28;922;-52
2022/05/10 08:10:27;;;;;;;;;;;;;;;26.33;26.53;100293.84;5051154;28;898;-54
2022/05/10 08:12:54;;;;;;;;;;;;;;;26.32;26.87;100287.38;5051256;28;874;-54
2022/05/10 08:15:20;;;;;;;;;;;;;;;26.40;25.68;100287.72;5051102;28;854;-55
2022/05/10 08:29:58;;;;;;;;;;;;;;;26.88;26.26;100287.09;5051392;28;601;-55
2022/05/10 08:32:25;;;;;;;;;;;;;;;26.53;26.74;100288.09;5050883;28;811;-56
2022/05/10 08:34:54;;;;;;;;;;;;;;;26.04;27.53;100287.88;5050858;28;1112;-56
2022/05/10 08:37:21;;;;;;;;;;;;;;;25.72;28.14;100289.03;5050935;28;855;-56
2022/05/10 08:39:48;;;;;;;;;;;;;;;25.63;29.05;100296.41;5050682;28;1906;-55
2022/05/10 08:42:25;;;;;;;;;;;;;;;25.96;29.15;100294.50;5050911;28;795;-55
2022/05/10 08:45:04;;;;;;;;;;;;;;;26.04;28.03;100290.72;5051053;28;899;-54
2022/05/10 08:47:31;;;;;;;;;;;;;;;25.76;28.21;100290.38;5054965;28;775;-56
2022/05/10 08:49:59;;;;;;;;;;;;;;;25.29;28.47;100292.34;5054594;28;810;-55
2022/05/10 08:52:31;;;;;;;;;;;;;;;25.18;29.76;100287.28;5054518;28;898;-56
2022/05/10 08:54:59;;;;;;;;;;;;;;;24.93;29.49;100290.78;5054441;28;868;-57
2022/05/10 08:57:28;;;;;;;;;;;;;;;24.63;30.13;100285.94;5054382;28;891;-53
2022/05/10 09:00:13;;;;;;;;;;;;;;;24.62;31.20;100292.06;5054501;28;1906;-56
2022/05/10 09:02:46;;;;;;;;;;;;;;;25.10;30.09;100285.38;5054150;28;934;-51
2022/05/10 09:05:21;;;;;;;;;;;;;;;25.08;29.64;100285.09;5054309;28;838;-57
2022/05/10 09:08:07;;;;;;;;;;;;;;;24.72;30.00;100285.06;5054558;28;787;-54
2022/05/10 09:10:50;;;;;;;;;;;;;;;24.58;30.37;100281.00;5054133;28;910;-55
2022/05/10 09:13:17;;;;;;;;;;;;;;;24.70;31.31;100287.59;5054060;28;866;-53
2022/05/10 09:15:50;;;;;;;;;;;;;;;24.57;30.90;100290.72;5054079;28;866;-56
2022/05/10 09:18:21;;;;;;;;;;;;;;;24.44;31.89;100287.38;5036192;28;1680;-56
2022/05/10 09:21:08;;;;;;;;;;;;;;;24.46;32.18;100279.97;5053911;28;1882;-52
2022/05/10 09:23:53;;;;;;;;;;;;;;;24.29;32.50;100292.25;5053940;28;2070;-53
2022/05/10 09:26:23;;;;;;;;;;;;;;;24.07;32.81;100281.31;5054077;28;867;-55
2022/05/10 09:28:53;;;;;;;;;;;;;;;23.79;32.07;100273.09;5053730;28;926;-54
2022/05/10 09:37:19;;;;;;;;;;;;;;;23.34;34.27;100270.13;5053997;28;617;-54
2022/05/10 09:39:58;;;;;;;;;;;;;;;23.03;33.44;100267.63;5022131;28;1933;-54
2022/05/10 09:42:33;;;;;;;;;;;;;;;22.78;33.74;100268.81;5053594;28;862;-54
2022/05/10 09:45:05;;;;;;;;;;;;;;;22.58;33.88;100264.50;5053397;28;930;-54
2022/05/10 09:47:32;;;;;;;;;;;;;;;22.61;33.08;100263.53;5053392;28;921;-53
2022/05/10 09:50:29;;;;;;;;;;;;;;;22.70;34.18;100254.28;5053328;28;946;-56
2022/05/10 09:53:09;;;;;;;;;;;;;;;22.68;34.98;100259.63;5040863;28;1279;-54
2022/05/10 09:55:35;;;;;;;;;;;;;;;22.62;35.32;100256.66;5053616;28;842;-52
2022/05/10 10:26:46;;;;;;;;;;;;;;;23.44;33.79;100223.66;5394025;22;1680;-55
2022/05/10 10:29:16;;;;;;;;;;;;;;;23.29;32.84;100225.66;5072825;28;880;-55
2022/05/10 10:31:46;;;;;;;;;;;;;;;23.27;33.31;100230.97;5072626;28;945;-55
2022/05/10 10:34:24;;;;;;;;;;;;;;;23.55;34.14;100225.91;5072807;28;814;-56
2022/05/10 10:37:04;;;;;;;;;;;;;;;23.48;33.02;100209.38;5072657;28;822;-56
2022/05/10 10:39:35;;;;;;;;;;;;;;;23.46;33.36;100226.00;5072403;28;1909;-56
2022/05/10 10:42:14;;;;;;;;;;;;;;;23.64;33.60;100223.03;5072389;28;874;-56
2022/05/10 10:44:44;;;;;;;;;;;;;;;23.70;33.17;100214.66;5072522;28;821;-55
2022/05/10 10:47:46;;;;;;;;;;;;;;;23.87;33.93;100214.22;5072366;28;814;-55
2022/05/10 10:50:25;;;;;;;;;;;;;;;23.78;33.58;100206.63;4991072;28;1398;-54
2022/05/10 10:52:54;;;;;;;;;;;;;;;23.77;33.94;100207.88;4991072;28;887;-55
2022/05/10 10:55:23;;;;;;;;;;;;;;;23.91;34.21;100212.00;4990752;28;895;-55
2022/05/10 10:57:49;;;;;;;;;;;;;;;23.90;33.26;100205.59;4990877;28;1007;-55
2022/05/10 11:00:19;;;;;;;;;;;;;;;24.11;33.86;100197.19;4990842;28;1883;-55
2022/05/10 11:02:55;;;;;;;;;;;;;;;24.12;31.58;100199.53;4990812;28;890;-56
2022/05/10 11:05:48;;;;;;;;;;;;;;;24.12;32.37;100195.94;4990687;28;894;-56
2022/05/10 11:08:27;;;;;;;;;;;;;;;24.20;32.99;100203.53;4988848;28;1365;-56
2022/05/10 11:11:17;;;;;;;;;;;;;;;24.16;31.61;100199.34;4990321;28;975;-56
2022/05/10 11:13:46;;;;;;;;;;;;;;;24.01;31.73;100197.31;4985495;28;1820;-54
2022/05/10 11:16:24;;;;;;;;;;;;;;;24.18;31.14;100197.59;4990629;28;858;-56
2022/05/10 11:19:06;;;;;;;;;;;;;;;24.30;31.24;100192.13;4990469;28;1942;-56
2022/05/10 11:24:43;;;;;;;;;;;;;;;24.36;30.72;100184.53;5039123;28;1078;-56
2022/05/10 11:27:28;;;;;;;;;;;;;;;24.22;31.53;100169.16;5071688;28;1279;-56
2022/05/10 11:30:02;;;;;;;;;;;;;;;24.47;31.09;100187.53;5071679;28;1051;-56
2022/05/10 11:32:44;;;;;;;;;;;;;;;24.56;30.63;100193.09;5053777;28;1474;-55
2022/05/10 11:47:49;;;;;;;;;;;;;;;24.38;30.45;100173.53;5071880;28;696;-56
2022/05/10 11:50:18;;;;;;;;;;;;;;;24.23;30.19;100182.78;5071632;28;930;-56
2022/05/10 11:56:08;;;;;;;;;;;;;;;24.33;29.90;100179.88;5071364;28;680;-56
2022/05/10 11:58:35;;;;;;;;;;;;;;;24.29;30.40;100177.25;5071278;28;854;-56
2022/05/10 12:01:04;;;;;;;;;;;;;;;24.03;29.73;100174.25;5053502;28;1345;-56
2022/05/10 12:03:36;;;;;;;;;;;;;;;23.87;29.38;100171.91;5071327;28;869;-55
2022/05/10 12:06:21;;;;;;;;;;;;;;;24.03;29.66;100169.38;5071207;28;893;-56
2022/05/10 12:08:52;;;;;;;;;;;;;;;24.23;30.00;100170.72;5071588;28;917;-56
2022/05/10 12:11:31;;;;;;;;;;;;;;;24.58;29.58;100167.97;5071190;28;912;-56
2022/05/10 12:32:21;;;;;;;;;;;;;;;24.89;25.97;100160.94;5055102;28;644;-56
2022/05/10 12:34:49;;;;;;;;;;;;;;;25.12;26.29;100159.19;5055107;28;850;-56
2022/05/10 12:37:30;;;;;;;;;;;;;;;25.35;27.17;100160.25;5054926;28;779;-56
2022/05/10 12:39:57;;;;;;;;;;;;;;;25.61;26.57;100151.78;5054940;28;1973;-57
2022/05/10 12:42:33;;;;;;;;;;;;;;;25.57;24.07;100151.22;5055256;28;841;-56
2022/05/10 12:45:03;;;;;;;;;;;;;;;25.25;25.38;100153.97;5054642;28;921;-56
2022/05/10 12:47:39;;;;;;;;;;;;;;;25.10;25.65;100149.63;5054577;28;933;-57
2022/05/10 12:50:19;;;;;;;;;;;;;;;24.99;25.35;100151.03;5054779;28;926;-56
2022/05/10 12:52:49;;;;;;;;;;;;;;;24.75;25.65;100153.28;5054377;28;866;-56
2022/05/10 12:55:22;;;;;;;;;;;;;;;24.57;25.17;100140.19;5054866;28;798;-56
2022/05/10 12:57:51;;;;;;;;;;;;;;;24.65;25.99;100142.13;5054759;28;818;-57
2022/05/10 13:00:23;;;;;;;;;;;;;;;24.64;25.79;100128.47;5054411;28;1882;-56
2022/05/10 13:03:09;;;;;;;;;;;;;;;24.51;25.81;100140.09;5054381;28;818;-56
2022/05/10 13:08:46;;;;;;;;;;;;;;;24.42;27.30;100128.91;5054687;28;612;-56
2022/05/10 13:11:13;;;;;;;;;;;;;;;24.45;27.45;100125.09;5054176;28;893;-55
2022/05/10 13:13:44;;;;;;;;;;;;;;;24.49;28.54;100122.84;5036509;28;865;-56
2022/05/10 13:16:15;;;;;;;;;;;;;;;24.50;27.19;100118.00;5054165;28;838;-55
2022/05/10 13:18:42;;;;;;;;;;;;;;;24.57;28.24;100121.19;5036295;28;1960;-56
2022/05/10 13:21:09;;;;;;;;;;;;;;;24.56;27.07;100121.66;5053995;28;938;-57
2022/05/10 13:23:35;;;;;;;;;;;;;;;24.33;27.49;100110.03;5053927;28;850;-57
2022/05/10 13:26:09;;;;;;;;;;;;;;;24.20;28.83;100115.22;5054339;28;892;-57
2022/05/10 13:28:50;;;;;;;;;;;;;;;24.28;27.69;100109.94;5054637;28;747;-56
2022/05/10 13:31:21;;;;;;;;;;;;;;;24.07;27.55;100103.44;5051074;28;2521;-54
2022/05/10 13:33:49;;;;;;;;;;;;;;;24.05;29.03;100098.31;5073326;28;929;-56
2022/05/10 13:36:17;;;;;;;;;;;;;;;24.04;28.60;100105.22;5073800;28;865;-57
2022/05/10 13:38:46;;;;;;;;;;;;;;;23.96;28.49;100101.22;5074261;28;1922;-56
2022/05/10 13:44:17;;;;;;;;;;;;;;;23.86;28.87;100113.91;5073700;28;684;-56
2022/05/10 13:46:51;;;;;;;;;;;;;;;23.72;28.90;100102.09;5073546;28;929;-57
2022/05/10 13:49:22;;;;;;;;;;;;;;;23.56;29.63;100111.81;5073455;28;862;-56
2022/05/10 13:54:56;;;;;;;;;;;;;;;22.80;30.39;100108.50;5073711;28;613;-55
2022/05/10 13:57:25;;;;;;;;;;;;;;;22.66;31.70;100106.41;5073380;28;856;-55
2022/05/10 13:59:58;;;;;;;;;;;;;;;22.49;30.87;100098.38;5073298;28;1886;-55
2022/05/10 14:02:26;;;;;;;;;;;;;;;22.36;31.95;100103.44;5073205;28;837;-56
2022/05/10 14:04:54;;;;;;;;;;;;;;;22.20;32.62;100107.41;5055589;28;878;-56
2022/05/10 14:07:25;;;;;;;;;;;;;;;22.05;31.87;100100.91;5073119;28;1123;-56
2022/05/10 14:09:53;;;;;;;;;;;;;;;21.91;32.82;100105.94;5073178;28;954;-55
2022/05/10 14:12:28;;;;;;;;;;;;;;;21.74;32.86;100102.72;5073299;28;881;-56
2022/05/10 14:15:20;;;;;;;;;;;;;;;21.80;34.59;100108.47;5073041;28;853;-56
2022/05/10 14:17:54;;;;;;;;;;;;;;;21.94;33.87;100101.41;5068889;28;1641;-56
2022/05/10 14:20:24;;;;;;;;;;;;;;;21.97;33.84;100111.69;5073010;28;1893;-56
2022/05/10 14:22:53;;;;;;;;;;;;;;;21.72;33.58;100102.41;5073008;28;913;-56
2022/05/10 14:25:21;;;;;;;;;;;;;;;21.43;34.13;100102.91;5072903;28;1041;-54
2022/05/10 14:28:00;;;;;;;;;;;;;;;21.32;35.00;100094.94;5072656;28;978;-56
2022/05/10 14:30:27;;;;;;;;;;;;;;;21.24;35.45;100098.53;5072530;28;1229;-55
2022/05/10 14:32:54;;;;;;;;;;;;;;;21.24;34.45;100104.94;5072572;28;938;-56
2022/05/10 14:35:30;;;;;;;;;;;;;;;21.11;35.77;100093.84;5072515;28;926;-56
2022/05/10 14:37:58;;;;;;;;;;;;;;;21.02;35.67;100102.28;5072470;28;921;-55
2022/05/10 14:40:33;;;;;;;;;;;;;;;21.03;36.68;100101.03;5072388;28;1967;-56
2022/05/10 14:43:03;;;;;;;;;;;;;;;20.89;36.11;100090.38;5054415;28;1638;-56
2022/05/10 14:45:31;;;;;;;;;;;;;;;20.76;36.06;100096.16;5072301;28;869;-55
2022/05/10 14:47:57;;;;;;;;;;;;;;;20.47;36.40;100091.72;5072360;28;794;-54
2022/05/10 14:50:34;;;;;;;;;;;;;;;20.24;36.00;100100.69;5072326;28;884;-55
2022/05/10 14:53:12;;;;;;;;;;;;;;;20.08;36.38;100096.09;5072375;28;807;-54
2022/05/10 14:55:40;;;;;;;;;;;;;;;20.07;37.21;100092.50;5072451;28;828;-55
2022/05/10 14:58:11;;;;;;;;;;;;;;;20.09;37.44;100094.84;5072236;28;806;-56